Wied, Texas
Current Conditions -  °F | °C
As of 11:15 AM on Sunday 21 Dec 2014 (Local Time) from K66R Reporting Station
Overcast Overcast  
Wind Chill: 53°   Ceiling: 1200
Heat Index: 53°   Visibility: 10mi
Dew Point: 49°   Wind: 3mph
Humidity: 85%   Direction: 170°S
Pressure: 30.1"   Gusts: NA
Location:  29.3984°N, 96.8256°W
Report Text: K66R 211715Z AUTO 17003KT 10SM OVC012 12/10 A3010 RMK AO2 T01190095
Loading
Personal Weather Stations






























Interactive Weather Map New forecast layout! Learn more

10-Day Weather Forecast

Advertisements
Track Severe Weather on mobile